createdAt,value
2022-09-18T00:02:13.431Z,11.28
2022-09-18T00:07:45.088Z,11.34
2022-09-18T00:13:16.826Z,11.22
2022-09-18T00:18:48.550Z,11.26
2022-09-18T00:24:20.255Z,11.16
2022-09-18T00:29:58.375Z,11.02
2022-09-18T00:35:30.589Z,11.22
2022-09-18T00:41:01.913Z,11.28
2022-09-18T00:46:33.618Z,11.26
2022-09-18T00:52:05.393Z,11.32
2022-09-18T00:57:36.966Z,11.4
2022-09-18T01:03:08.750Z,11.35
2022-09-18T01:08:43.848Z,11.29
2022-09-18T01:14:12.201Z,11.29
2022-09-18T01:19:43.903Z,11.16
2022-09-18T01:25:15.686Z,11.19
2022-09-18T01:30:53.904Z,11.15
2022-09-18T01:36:25.548Z,11.1
2022-09-18T01:41:57.290Z,11.11
2022-09-18T01:47:29.014Z,11.13
2022-09-18T01:53:00.759Z,11.17
2022-09-18T01:58:32.404Z,11.13
2022-09-18T02:04:04.272Z,10.93
2022-09-18T02:09:35.881Z,10.85
2022-09-18T02:15:07.736Z,10.88
2022-09-18T02:20:39.369Z,11.08
2022-09-18T02:26:11.052Z,11.0
2022-09-18T02:31:47.279Z,10.95
2022-09-18T02:37:18.925Z,11.04
2022-09-18T02:42:50.676Z,10.98
2022-09-18T02:48:22.341Z,11.1
2022-09-18T02:53:54.162Z,11.22
2022-09-18T02:59:25.799Z,11.13
2022-09-18T03:04:57.553Z,11.3
2022-09-18T03:10:29.266Z,11.35
2022-09-18T03:16:01.045Z,11.04
2022-09-18T03:21:32.750Z,11.38
2022-09-18T03:27:04.422Z,10.98
2022-09-18T03:32:40.573Z,11.16
2022-09-18T03:38:12.485Z,11.09
2022-09-18T03:43:44.057Z,11.01
2022-09-18T03:49:15.797Z,11.17
2022-09-18T03:54:47.505Z,11.09
2022-09-18T04:00:19.196Z,11.26
2022-09-18T04:05:50.916Z,11.17
2022-09-18T04:11:22.641Z,11.13
2022-09-18T04:16:54.307Z,10.86
2022-09-18T04:22:26.061Z,11.08
2022-09-18T04:27:57.802Z,11.06
2022-09-18T04:33:35.930Z,10.99
2022-09-18T04:39:07.673Z,10.97
2022-09-18T04:44:39.427Z,11.14
2022-09-18T04:50:11.129Z,11.24
2022-09-18T04:55:42.854Z,11.22
2022-09-18T05:01:14.632Z,11.17
2022-09-18T05:06:46.301Z,11.18
2022-09-18T05:12:18.250Z,11.11
2022-09-18T05:17:49.745Z,11.27
2022-09-18T05:23:21.498Z,11.24
2022-09-18T05:28:53.218Z,11.43
2022-09-18T05:34:31.419Z,11.52
2022-09-18T05:40:03.155Z,11.47
2022-09-18T05:45:34.867Z,11.4
2022-09-18T05:51:06.586Z,11.67
2022-09-18T05:56:38.221Z,11.58
2022-09-18T06:02:10.045Z,11.59
2022-09-18T06:07:41.680Z,11.65
2022-09-18T06:13:13.377Z,11.51
2022-09-18T06:18:45.095Z,11.47
2022-09-18T06:24:16.893Z,11.42
2022-09-18T06:29:48.542Z,11.56
2022-09-18T06:35:26.757Z,11.53
2022-09-18T06:40:58.391Z,11.44
2022-09-18T06:46:30.272Z,11.34
2022-09-18T06:52:01.889Z,11.41
2022-09-18T06:57:33.648Z,11.57
2022-09-18T07:03:05.301Z,11.61
2022-09-18T07:08:37.087Z,11.63
2022-09-18T07:14:09.524Z,11.62
2022-09-18T07:19:41.297Z,11.78
2022-09-18T07:25:13.057Z,11.75
2022-09-18T07:30:45.441Z,11.91
2022-09-18T07:36:25.565Z,11.86
2022-09-18T07:41:57.353Z,11.78
2022-09-18T07:47:28.997Z,11.76
2022-09-18T07:53:00.749Z,11.73
2022-09-18T07:58:32.444Z,11.75
2022-09-18T08:04:04.168Z,11.63
2022-09-18T08:09:35.865Z,11.8
2022-09-18T08:15:07.644Z,11.91
2022-09-18T08:17:44.321Z,11.74
2022-09-18T08:23:15.901Z,11.78
2022-09-18T08:28:47.649Z,12.05
2022-09-18T08:34:19.437Z,12.09
2022-09-18T08:39:51.149Z,12.17
2022-09-18T08:45:22.883Z,12.21
2022-09-18T08:50:54.612Z,12.11
2022-09-18T08:56:26.441Z,12.31
2022-09-18T09:01:58.251Z,12.28
2022-09-18T09:07:29.881Z,12.17
2022-09-18T09:13:01.663Z,12.32
2022-09-18T09:18:37.783Z,12.31
2022-09-18T09:24:09.516Z,12.34
2022-09-18T09:29:41.311Z,12.68
2022-09-18T09:35:12.955Z,12.59
2022-09-18T09:40:45.049Z,12.54
2022-09-18T09:46:19.364Z,12.76
2022-09-18T09:51:48.179Z,12.73
2022-09-18T09:57:19.895Z,12.71
2022-09-18T10:02:51.586Z,12.95
2022-09-18T10:08:23.334Z,13.32
2022-09-18T10:13:55.021Z,13.51
2022-09-18T10:19:31.150Z,13.49
2022-09-18T10:25:02.865Z,13.77
2022-09-18T10:30:34.597Z,13.96
2022-09-18T10:36:06.393Z,13.73
2022-09-18T10:41:38.134Z,14.25
2022-09-18T10:47:09.831Z,14.19
2022-09-18T10:52:41.591Z,14.46
2022-09-18T10:58:13.309Z,14.7
2022-09-18T11:03:45.222Z,15.15
2022-09-18T11:09:16.709Z,15.42
2022-09-18T11:14:48.410Z,15.51
2022-09-18T11:20:24.546Z,15.22
2022-09-18T11:25:56.299Z,15.38
2022-09-18T11:31:28.052Z,15.82
2022-09-18T11:36:59.718Z,16.08
2022-09-18T11:42:31.397Z,15.71
2022-09-18T11:48:03.180Z,15.67
2022-09-18T11:53:34.866Z,15.56
2022-09-18T11:59:06.609Z,15.4
2022-09-18T12:04:38.376Z,15.46
2022-09-18T12:10:08.746Z,15.49
2022-09-18T12:15:40.433Z,15.73
2022-09-18T12:21:16.559Z,15.3
2022-09-18T12:26:48.269Z,15.45
2022-09-18T12:32:19.974Z,15.75
2022-09-18T12:37:51.672Z,15.77
2022-09-18T12:43:24.096Z,15.67
2022-09-18T12:48:55.839Z,15.83
2022-09-18T12:54:27.604Z,15.66
2022-09-18T12:59:59.338Z,15.48
2022-09-18T13:05:31.071Z,15.38
2022-09-18T13:11:02.769Z,15.09
2022-09-18T13:16:35.323Z,15.11
2022-09-18T13:22:11.417Z,15.06
2022-09-18T13:27:43.102Z,15.0
2022-09-18T13:33:14.823Z,15.26
2022-09-18T13:38:46.543Z,15.17
2022-09-18T13:44:18.334Z,15.06
2022-09-18T13:49:50.106Z,15.09
2022-09-18T13:55:21.807Z,15.13
2022-09-18T14:00:53.503Z,14.9
2022-09-18T14:06:25.216Z,14.87
2022-09-18T14:11:56.949Z,15.02
2022-09-18T14:17:28.672Z,15.12
2022-09-18T14:23:06.852Z,15.16
2022-09-18T14:28:38.537Z,15.12
2022-09-18T14:34:10.241Z,15.25
2022-09-18T14:39:42.011Z,15.39
2022-09-18T14:45:13.732Z,15.33
2022-09-18T14:50:45.442Z,15.04
2022-09-18T14:56:17.151Z,15.33
2022-09-18T15:01:48.888Z,15.52
2022-09-18T15:07:20.612Z,15.35
2022-09-18T15:12:52.322Z,15.27
2022-09-18T15:18:24.142Z,15.22
2022-09-18T15:24:00.197Z,15.14
2022-09-18T15:29:31.935Z,15.45
2022-09-18T15:35:03.740Z,15.01
2022-09-18T15:40:35.442Z,15.05
2022-09-18T15:46:07.118Z,14.91
2022-09-18T15:51:38.843Z,15.03
2022-09-18T15:57:10.498Z,14.99
2022-09-18T16:02:42.305Z,15.0
2022-09-18T16:08:14.142Z,14.92
2022-09-18T16:13:45.824Z,14.98
2022-09-18T16:19:17.552Z,14.94
2022-09-18T16:24:53.631Z,14.93
2022-09-18T16:30:25.431Z,14.86
2022-09-18T16:35:57.184Z,14.81
2022-09-18T16:41:28.939Z,14.92
2022-09-18T16:47:00.720Z,14.89
2022-09-18T16:52:32.639Z,14.83
2022-09-18T16:58:04.361Z,14.73
2022-09-18T17:03:36.111Z,14.91
2022-09-18T17:09:07.842Z,14.84
2022-09-18T17:14:39.584Z,14.5
2022-09-18T17:20:11.290Z,14.49
2022-09-18T17:25:47.438Z,14.54
2022-09-18T17:31:19.245Z,14.54
2022-09-18T17:36:50.915Z,14.58
2022-09-18T17:42:22.600Z,14.59
2022-09-18T17:47:54.394Z,14.57
2022-09-18T17:53:26.068Z,14.53
2022-09-18T17:58:57.763Z,14.6
2022-09-18T18:04:29.454Z,14.63
2022-09-18T18:10:01.849Z,14.4
2022-09-18T18:15:33.585Z,14.33
2022-09-18T18:21:05.601Z,14.36
2022-09-18T18:26:41.405Z,14.3
2022-09-18T18:32:13.149Z,14.39
2022-09-18T18:37:44.907Z,14.35
2022-09-18T18:43:16.623Z,14.35
2022-09-18T18:48:48.328Z,14.3
2022-09-18T18:54:20.043Z,14.32
2022-09-18T18:59:51.772Z,14.29
2022-09-18T19:05:23.531Z,14.31
2022-09-18T19:10:55.247Z,14.43
2022-09-18T19:16:26.970Z,14.47
2022-09-18T19:21:58.795Z,14.46
2022-09-18T19:27:36.810Z,14.49
2022-09-18T19:33:09.558Z,14.33
2022-09-18T19:38:40.188Z,14.18
2022-09-18T19:44:11.995Z,14.38
2022-09-18T19:49:43.687Z,14.07
2022-09-18T19:55:15.451Z,14.18
2022-09-18T20:00:47.289Z,14.07
2022-09-18T20:06:18.843Z,13.85
2022-09-18T20:11:50.580Z,13.31
2022-09-18T20:17:22.312Z,13.5
2022-09-18T20:22:54.092Z,12.79
2022-09-18T20:28:30.241Z,12.88
2022-09-18T20:34:02.005Z,12.64
2022-09-18T20:39:33.780Z,12.58
2022-09-18T20:45:05.529Z,12.43
2022-09-18T20:50:37.269Z,12.4
2022-09-18T20:56:08.987Z,12.27
2022-09-18T21:01:40.737Z,12.32
2022-09-18T21:07:12.406Z,12.53
2022-09-18T21:12:44.142Z,12.33
2022-09-18T21:18:15.867Z,12.12
2022-09-18T21:23:47.618Z,12.26
2022-09-18T21:29:23.735Z,12.3
2022-09-18T21:34:55.432Z,12.0
2022-09-18T21:40:27.235Z,12.03
2022-09-18T21:45:58.922Z,11.92
2022-09-18T21:51:30.644Z,11.84
2022-09-18T21:57:02.353Z,11.72
2022-09-18T22:02:34.132Z,11.84
2022-09-18T22:08:05.874Z,11.78
2022-09-18T22:13:37.581Z,11.99
2022-09-18T22:19:09.489Z,11.82
2022-09-18T22:24:41.062Z,11.9
2022-09-18T22:30:17.184Z,11.88
2022-09-18T22:35:48.906Z,11.9
2022-09-18T22:41:20.612Z,11.74
2022-09-18T22:46:52.537Z,11.46
2022-09-18T22:52:24.065Z,11.22
2022-09-18T22:57:55.801Z,11.0
2022-09-18T23:03:27.498Z,10.72
2022-09-18T23:08:59.262Z,10.62
2022-09-18T23:14:30.955Z,10.82
2022-09-18T23:20:02.710Z,10.82
2022-09-18T23:25:34.443Z,10.96
2022-09-18T23:31:12.583Z,10.94
2022-09-18T23:36:44.317Z,10.95
2022-09-18T23:42:16.022Z,11.28
2022-09-18T23:47:47.738Z,11.11
2022-09-18T23:53:19.450Z,10.65
2022-09-18T23:58:51.198Z,10.7
